Ambia, Indiana
Current Conditions -  °F | °C
As of 5:35 PM on Monday 20 Oct 2014 (Local Time) from KDNV Reporting Station
Scattered Clouds Scattered Clouds  
Wind Chill: 18°   Ceiling: Unl
Heat Index: 18°   Visibility: 7mi
Dew Point:   Wind: 13mph
Humidity: 52%   Direction: 300°WNW
Pressure: 29.85"   Gusts: 22mph
Location:  40.49°N, 87.52°W
Report Text: KDNV 202135Z AUTO 30011G19KT 7SM SCT065 18/09 A2985 RMK AO2 T01840085
Loading
Personal Weather Stations






























Interactive Weather Map
Tropical Storm Tracking
New forecast layout! Learn more

10-Day Weather Forecast

Advertisements
Track Severe Weather on mobile